createdAt,value
2019-03-29T00:01:24.334Z,-0.47
2019-03-29T00:03:55.224Z,-0.47
2019-03-29T00:06:26.076Z,-0.43
2019-03-29T00:09:00.271Z,-0.40
2019-03-29T00:11:32.336Z,-0.41
2019-03-29T00:14:03.785Z,-0.52
2019-03-29T00:16:34.218Z,-0.55
2019-03-29T00:19:07.194Z,-0.53
2019-03-29T00:21:39.191Z,-0.37
2019-03-29T00:24:14.951Z,-0.32
2019-03-29T00:26:48.719Z,-0.14
2019-03-29T00:29:20.955Z,-0.21
2019-03-29T00:31:52.685Z,-0.20
2019-03-29T00:34:24.596Z,-0.28
2019-03-29T00:36:55.022Z,-0.28
2019-03-29T00:39:27.903Z,-0.17
2019-03-29T00:41:59.952Z,-0.18
2019-03-29T00:44:30.447Z,-0.06
2019-03-29T00:47:01.235Z,-0.14
2019-03-29T00:49:34.697Z,-0.13
2019-03-29T00:52:09.225Z,-0.01
2019-03-29T00:54:43.664Z,0.08
2019-03-29T00:57:14.312Z,0.09
2019-03-29T00:59:44.617Z,-0.02
2019-03-29T01:02:15.756Z,-0.04
2019-03-29T01:04:46.494Z,-0.09
2019-03-29T01:07:17.182Z,-0.07
2019-03-29T01:09:51.748Z,-0.13
2019-03-29T01:12:24.016Z,-0.22
2019-03-29T01:14:57.202Z,-0.22
2019-03-29T01:17:28.454Z,-0.16
2019-03-29T01:20:00.000Z,0.01
2019-03-29T01:22:32.566Z,-0.02
2019-03-29T01:25:03.618Z,0.01
2019-03-29T01:27:34.659Z,0.14
2019-03-29T01:30:07.624Z,0.09
2019-03-29T01:32:38.092Z,0.30
2019-03-29T01:35:09.560Z,0.36
2019-03-29T01:37:40.948Z,0.39
2019-03-29T01:40:12.209Z,0.31
2019-03-29T01:42:42.530Z,0.36
2019-03-29T01:45:14.244Z,0.55
2019-03-29T01:47:47.254Z,0.54
2019-03-29T01:50:18.107Z,0.66
2019-03-29T01:52:49.247Z,0.64
2019-03-29T01:55:23.308Z,0.69
2019-03-29T01:57:54.319Z,0.70
2019-03-29T02:00:32.118Z,0.53
2019-03-29T02:03:03.196Z,0.50
2019-03-29T02:05:36.019Z,0.45
2019-03-29T02:08:06.649Z,0.60
2019-03-29T02:10:38.506Z,0.50
2019-03-29T02:13:08.930Z,0.60
2019-03-29T02:15:41.525Z,0.68
2019-03-29T02:18:15.285Z,0.71
2019-03-29T02:20:45.816Z,0.77
2019-03-29T02:23:17.290Z,0.77
2019-03-29T02:25:48.743Z,0.69
2019-03-29T02:28:19.785Z,0.74
2019-03-29T02:30:52.357Z,0.70
2019-03-29T02:33:24.858Z,0.54
2019-03-29T02:35:57.686Z,0.54
2019-03-29T02:38:28.135Z,0.47
2019-03-29T02:40:58.773Z,0.46
2019-03-29T02:43:30.420Z,0.49
2019-03-29T02:46:01.254Z,0.68
2019-03-29T02:48:32.191Z,0.79
2019-03-29T02:51:04.528Z,0.83
2019-03-29T02:53:37.445Z,0.81
2019-03-29T02:56:08.822Z,0.84
2019-03-29T02:58:40.346Z,0.95
2019-03-29T03:01:11.898Z,1.02
2019-03-29T03:03:42.429Z,0.91
2019-03-29T03:06:16.932Z,0.91
2019-03-29T03:08:48.021Z,0.92
2019-03-29T03:11:20.590Z,0.81
2019-03-29T03:13:51.601Z,0.84
2019-03-29T03:16:22.235Z,0.85
2019-03-29T03:18:53.387Z,0.82
2019-03-29T03:21:24.219Z,0.76
2019-03-29T03:23:54.958Z,0.86
2019-03-29T03:26:25.986Z,0.79
2019-03-29T03:28:57.841Z,0.80
2019-03-29T03:31:29.763Z,0.87
2019-03-29T03:34:00.144Z,0.83
2019-03-29T03:36:30.825Z,0.67
2019-03-29T03:39:01.587Z,0.64
2019-03-29T03:41:33.137Z,0.62
2019-03-29T03:44:03.772Z,0.73
2019-03-29T03:46:35.821Z,0.71
2019-03-29T03:49:07.175Z,0.89
2019-03-29T03:51:38.638Z,0.87
2019-03-29T03:54:09.686Z,0.85
2019-03-29T03:56:40.706Z,0.77
2019-03-29T03:59:12.673Z,0.80
2019-03-29T04:01:46.163Z,0.90
2019-03-29T04:04:16.493Z,0.91
2019-03-29T04:06:50.498Z,1.00
2019-03-29T04:09:20.814Z,1.05
2019-03-29T04:11:52.072Z,1.13
2019-03-29T04:14:23.404Z,1.24
2019-03-29T04:16:54.249Z,1.34
2019-03-29T04:19:26.413Z,1.41
2019-03-29T04:21:58.583Z,1.59
2019-03-29T04:24:30.386Z,1.68
2019-03-29T04:27:02.308Z,1.69
2019-03-29T04:29:33.855Z,1.70
2019-03-29T04:32:09.181Z,1.71
2019-03-29T04:34:40.460Z,1.87
2019-03-29T04:37:13.347Z,1.95
2019-03-29T04:39:44.457Z,2.07
2019-03-29T04:42:15.598Z,2.12
2019-03-29T04:44:47.396Z,2.16
2019-03-29T04:47:19.242Z,2.13
2019-03-29T04:49:51.185Z,2.19
2019-03-29T04:52:23.237Z,2.24
2019-03-29T04:54:55.597Z,2.32
2019-03-29T04:57:26.237Z,2.25
2019-03-29T04:59:59.428Z,2.38
2019-03-29T05:02:30.453Z,2.35
2019-03-29T05:05:04.823Z,2.33
2019-03-29T05:07:37.172Z,2.42
2019-03-29T05:10:20.269Z,2.46
2019-03-29T05:12:42.622Z,2.56
2019-03-29T05:15:15.092Z,2.62
2019-03-29T05:17:48.556Z,2.70
2019-03-29T05:20:19.496Z,2.83
2019-03-29T05:22:50.266Z,2.93
2019-03-29T05:25:23.037Z,3.03
2019-03-29T05:27:54.830Z,3.03
2019-03-29T05:30:25.128Z,3.08
2019-03-29T05:32:57.485Z,3.10
2019-03-29T05:35:28.195Z,3.28
2019-03-29T05:38:00.045Z,3.41
2019-03-29T05:40:35.134Z,3.51
2019-03-29T05:43:08.313Z,3.37
2019-03-29T05:45:38.748Z,3.43
2019-03-29T05:48:12.634Z,3.55
2019-03-29T05:50:44.169Z,3.69
2019-03-29T05:53:16.334Z,3.90
2019-03-29T05:55:48.475Z,3.75
2019-03-29T05:58:18.949Z,3.52
2019-03-29T06:00:50.495Z,3.74
2019-03-29T06:03:22.088Z,3.81
2019-03-29T06:05:52.878Z,3.70
2019-03-29T06:08:25.875Z,3.67
2019-03-29T06:11:00.099Z,3.44
2019-03-29T06:13:31.742Z,3.62
2019-03-29T06:16:06.049Z,3.59
2019-03-29T06:18:35.253Z,3.73
2019-03-29T06:21:07.619Z,3.77
2019-03-29T06:23:38.094Z,3.93
2019-03-29T06:26:09.464Z,3.72
2019-03-29T06:28:40.634Z,3.93
2019-03-29T06:31:12.900Z,3.87
2019-03-29T06:33:44.860Z,3.79
2019-03-29T06:36:16.999Z,3.89
2019-03-29T06:38:48.994Z,4.04
2019-03-29T06:41:20.548Z,4.04
2019-03-29T06:43:51.789Z,4.10
2019-03-29T06:46:23.236Z,3.97
2019-03-29T06:48:55.401Z,3.98
2019-03-29T06:51:27.650Z,3.88
2019-03-29T06:53:58.655Z,4.08
2019-03-29T06:56:29.948Z,4.26
2019-03-29T06:59:01.213Z,4.34
2019-03-29T07:01:33.263Z,4.46
2019-03-29T07:04:03.587Z,4.54
2019-03-29T07:06:34.317Z,4.88
2019-03-29T07:09:06.791Z,4.97
2019-03-29T07:11:41.309Z,5.05
2019-03-29T07:14:11.946Z,4.81
2019-03-29T07:16:44.112Z,4.81
2019-03-29T07:19:16.073Z,5.16
2019-03-29T07:21:48.135Z,5.29
2019-03-29T07:24:21.679Z,5.45
2019-03-29T07:26:52.977Z,5.70
2019-03-29T07:29:25.246Z,5.78
2019-03-29T07:31:55.975Z,6.04
2019-03-29T07:34:27.414Z,5.29
2019-03-29T07:36:57.764Z,5.57
2019-03-29T07:39:28.480Z,5.92
2019-03-29T07:41:59.526Z,6.26
2019-03-29T07:44:30.048Z,6.34
2019-03-29T07:47:00.885Z,6.44
2019-03-29T07:49:31.616Z,6.82
2019-03-29T07:52:03.785Z,7.12
2019-03-29T07:54:34.514Z,7.31
2019-03-29T07:57:06.271Z,7.38
2019-03-29T07:59:37.117Z,7.38
2019-03-29T08:02:08.866Z,7.43
2019-03-29T08:04:42.145Z,7.25
2019-03-29T08:07:26.727Z,7.73
2019-03-29T08:09:48.231Z,7.62
2019-03-29T08:12:18.800Z,7.88
2019-03-29T08:14:52.179Z,8.49
2019-03-29T08:17:24.847Z,8.72
2019-03-29T08:20:24.558Z,8.25
2019-03-29T08:22:28.836Z,7.99
2019-03-29T08:24:59.524Z,8.24
2019-03-29T08:27:31.734Z,8.27
2019-03-29T08:30:02.078Z,8.42
2019-03-29T08:32:32.809Z,9.01
2019-03-29T08:35:03.883Z,9.67
2019-03-29T08:37:34.686Z,9.97
2019-03-29T08:40:06.648Z,10.03
2019-03-29T08:42:37.381Z,9.75
2019-03-29T08:45:08.954Z,9.58
2019-03-29T08:47:39.255Z,9.35
2019-03-29T08:50:09.898Z,9.77
2019-03-29T08:52:42.260Z,10.35
2019-03-29T08:55:13.370Z,9.82
2019-03-29T08:57:44.397Z,9.86
2019-03-29T09:00:19.751Z,9.52
2019-03-29T09:02:52.351Z,8.97
2019-03-29T09:05:23.100Z,9.05
2019-03-29T09:07:53.612Z,9.23
2019-03-29T09:10:26.795Z,9.62
2019-03-29T09:12:57.028Z,9.62
2019-03-29T09:15:28.248Z,9.87
2019-03-29T09:18:00.087Z,9.77
2019-03-29T09:20:34.651Z,9.48
2019-03-29T09:23:10.249Z,9.74
2019-03-29T09:25:40.595Z,10.20
2019-03-29T09:28:12.381Z,10.64
2019-03-29T09:30:43.210Z,10.69
2019-03-29T09:33:13.839Z,10.74
2019-03-29T09:35:49.502Z,11.09
2019-03-29T09:38:21.040Z,11.46
2019-03-29T09:40:58.789Z,10.61
2019-03-29T09:43:26.553Z,10.86
2019-03-29T09:45:56.722Z,11.25
2019-03-29T09:48:27.662Z,10.34
2019-03-29T09:50:59.143Z,10.27
2019-03-29T09:53:30.040Z,11.00
2019-03-29T09:56:01.069Z,10.69
2019-03-29T09:58:32.227Z,11.07
2019-03-29T10:01:04.183Z,11.00
2019-03-29T10:03:36.062Z,11.40
2019-03-29T10:06:08.534Z,11.42
2019-03-29T10:08:42.397Z,11.20
2019-03-29T10:11:14.177Z,11.76
2019-03-29T10:13:47.677Z,12.66
2019-03-29T10:16:19.024Z,12.75
2019-03-29T10:18:50.104Z,13.66
2019-03-29T10:21:23.176Z,12.94
2019-03-29T10:23:57.574Z,12.72
2019-03-29T10:26:28.010Z,13.63
2019-03-29T10:28:58.837Z,14.61
2019-03-29T10:31:32.837Z,13.27
2019-03-29T10:34:03.581Z,13.24
2019-03-29T10:36:34.306Z,13.40
2019-03-29T10:39:11.844Z,13.02
2019-03-29T10:41:42.228Z,13.87
2019-03-29T10:44:12.858Z,15.11
2019-03-29T10:46:43.983Z,14.15
2019-03-29T10:49:14.930Z,14.66
2019-03-29T10:51:45.673Z,15.73
2019-03-29T10:54:17.518Z,15.95
2019-03-29T10:56:48.268Z,14.22
2019-03-29T10:59:27.307Z,13.55
2019-03-29T11:01:53.409Z,13.78
2019-03-29T11:04:23.919Z,14.04
2019-03-29T11:06:54.671Z,15.04
2019-03-29T11:09:25.625Z,15.72
2019-03-29T11:11:56.083Z,15.92
2019-03-29T11:14:27.183Z,17.29
2019-03-29T11:16:58.153Z,16.87
2019-03-29T11:19:30.480Z,17.63
2019-03-29T11:22:01.618Z,16.70
2019-03-29T11:24:42.902Z,17.50
2019-03-29T11:30:48.690Z,16.22
2019-03-29T11:33:18.975Z,15.25
2019-03-29T11:35:51.703Z,15.05
2019-03-29T11:38:23.988Z,15.26
2019-03-29T11:40:56.048Z,15.19
2019-03-29T11:43:27.535Z,16.48
2019-03-29T11:45:59.175Z,18.35
2019-03-29T11:48:29.971Z,17.89
2019-03-29T11:51:01.706Z,15.56
2019-03-29T11:53:32.348Z,17.71
2019-03-29T11:56:02.858Z,16.80
2019-03-29T11:58:36.899Z,15.44
2019-03-29T12:01:11.137Z,14.97
2019-03-29T12:03:40.911Z,16.40
2019-03-29T12:06:11.333Z,17.17
2019-03-29T12:08:41.953Z,16.12
2019-03-29T12:11:13.155Z,15.41
2019-03-29T12:13:45.973Z,15.82
2019-03-29T12:16:16.302Z,16.38
2019-03-29T12:18:48.573Z,15.40
2019-03-29T12:21:26.532Z,14.17
2019-03-29T12:23:57.634Z,13.89
2019-03-29T12:26:31.211Z,13.91
2019-03-29T12:29:02.992Z,14.63
2019-03-29T12:31:33.701Z,14.38
2019-03-29T12:34:08.060Z,14.53
2019-03-29T12:36:42.603Z,15.08
2019-03-29T12:39:14.197Z,14.66
2019-03-29T12:41:44.534Z,14.55
2019-03-29T12:44:15.936Z,13.90
2019-03-29T12:46:49.566Z,15.27
2019-03-29T12:49:20.197Z,14.70
2019-03-29T12:51:50.825Z,14.63
2019-03-29T12:54:21.624Z,14.69
2019-03-29T12:56:53.944Z,14.78
2019-03-29T12:59:26.508Z,15.19
2019-03-29T13:01:57.240Z,14.71
2019-03-29T13:04:27.969Z,14.83
2019-03-29T13:06:59.622Z,15.17
2019-03-29T13:09:29.857Z,15.44
2019-03-29T13:12:00.582Z,14.48
2019-03-29T13:14:32.640Z,15.89
2019-03-29T13:17:03.186Z,16.98
2019-03-29T13:19:34.004Z,16.08
2019-03-29T13:22:06.787Z,16.28
2019-03-29T13:24:37.418Z,17.83
2019-03-29T13:27:08.150Z,16.82
2019-03-29T13:29:38.777Z,17.59
2019-03-29T13:32:09.410Z,17.75
2019-03-29T13:34:41.166Z,18.55
2019-03-29T13:37:12.202Z,20.53
2019-03-29T13:39:42.628Z,19.34
2019-03-29T13:42:13.265Z,18.76
2019-03-29T13:44:46.753Z,18.88
2019-03-29T13:47:18.268Z,19.03
2019-03-29T13:49:48.843Z,19.23
2019-03-29T13:52:22.653Z,19.82
2019-03-29T13:54:54.398Z,19.59
2019-03-29T13:57:26.755Z,20.82
2019-03-29T13:59:57.364Z,20.81
2019-03-29T14:02:28.229Z,18.42
2019-03-29T14:05:00.812Z,19.21
2019-03-29T14:07:31.236Z,19.57
2019-03-29T14:10:02.582Z,18.04
2019-03-29T14:12:34.650Z,16.73
2019-03-29T14:15:09.338Z,15.84
2019-03-29T14:17:39.898Z,14.17
2019-03-29T14:20:11.965Z,13.86
2019-03-29T14:22:42.593Z,15.12
2019-03-29T14:25:14.041Z,14.82
2019-03-29T14:27:45.377Z,15.06
2019-03-29T14:30:16.633Z,16.08
2019-03-29T14:32:46.958Z,16.42
2019-03-29T14:35:17.792Z,17.92
2019-03-29T14:37:48.525Z,18.08
2019-03-29T14:40:19.951Z,18.07
2019-03-29T14:42:50.522Z,18.38
2019-03-29T14:45:21.341Z,16.93
2019-03-29T14:47:52.684Z,14.30
2019-03-29T14:50:23.730Z,16.29
2019-03-29T14:52:54.565Z,16.04
2019-03-29T14:55:27.730Z,16.18
2019-03-29T14:57:58.377Z,15.91
2019-03-29T15:00:39.545Z,15.92
2019-03-29T15:03:11.618Z,16.68
2019-03-29T15:05:41.944Z,14.96
2019-03-29T15:08:12.981Z,14.03
2019-03-29T15:10:46.000Z,13.93
2019-03-29T15:13:16.404Z,13.54
2019-03-29T15:15:47.233Z,13.11
2019-03-29T15:18:17.869Z,12.97
2019-03-29T15:20:53.733Z,12.67
2019-03-29T15:23:20.867Z,12.25
2019-03-29T15:25:51.569Z,11.47
2019-03-29T15:28:22.530Z,12.15
2019-03-29T15:30:54.804Z,11.85
2019-03-29T15:33:25.533Z,10.55
2019-03-29T15:35:58.926Z,10.40
2019-03-29T15:38:30.965Z,10.47
2019-03-29T15:41:01.529Z,9.94
2019-03-29T15:43:32.354Z,9.16
2019-03-29T15:46:02.983Z,8.81
2019-03-29T15:48:33.619Z,8.59
2019-03-29T15:51:05.525Z,8.36
2019-03-29T15:53:40.046Z,8.33
2019-03-29T15:56:14.316Z,8.20
2019-03-29T15:58:46.221Z,8.08
2019-03-29T16:01:18.796Z,8.07
2019-03-29T16:03:50.029Z,8.07
2019-03-29T16:06:22.472Z,7.92
2019-03-29T16:08:53.099Z,7.89
2019-03-29T16:11:25.471Z,7.86
2019-03-29T16:13:58.045Z,7.83
2019-03-29T16:16:28.518Z,7.83
2019-03-29T16:19:00.224Z,7.85
2019-03-29T16:21:30.620Z,7.81
2019-03-29T16:24:01.285Z,7.75
2019-03-29T16:26:32.812Z,7.67
2019-03-29T16:29:04.190Z,7.69
2019-03-29T16:31:36.342Z,7.59
2019-03-29T16:34:10.069Z,7.60
2019-03-29T16:36:41.692Z,7.59
2019-03-29T16:39:12.739Z,7.53
2019-03-29T16:41:43.982Z,7.49
2019-03-29T16:44:14.409Z,7.54
2019-03-29T16:46:45.467Z,7.47
2019-03-29T16:49:17.718Z,7.49
2019-03-29T16:51:48.962Z,7.49
2019-03-29T16:54:21.910Z,7.50
2019-03-29T16:56:53.077Z,7.56
2019-03-29T16:59:24.024Z,7.59
2019-03-29T17:01:54.865Z,7.60
2019-03-29T17:04:26.633Z,7.57
2019-03-29T17:07:00.715Z,7.61
2019-03-29T17:09:33.409Z,7.57
2019-03-29T17:12:04.549Z,7.56
2019-03-29T17:14:36.802Z,7.54
2019-03-29T17:17:08.476Z,7.54
2019-03-29T17:19:39.310Z,7.57
2019-03-29T17:22:11.479Z,7.56
2019-03-29T17:24:56.069Z,7.48
2019-03-29T17:27:14.785Z,7.47
2019-03-29T17:29:45.423Z,7.47
2019-03-29T17:32:17.066Z,7.40
2019-03-29T17:34:49.594Z,7.42
2019-03-29T17:37:19.903Z,7.43
2019-03-29T17:39:50.904Z,7.37
2019-03-29T17:42:24.488Z,7.33
2019-03-29T17:44:58.866Z,7.35
2019-03-29T17:47:27.609Z,7.39
2019-03-29T17:49:59.141Z,7.32
2019-03-29T17:52:32.551Z,7.33
2019-03-29T17:55:03.493Z,7.26
2019-03-29T17:57:33.815Z,7.28
2019-03-29T18:00:07.314Z,7.25
2019-03-29T18:02:38.294Z,7.29
2019-03-29T18:05:09.188Z,7.28
2019-03-29T18:07:40.121Z,7.30
2019-03-29T18:10:11.789Z,7.32
2019-03-29T18:12:45.899Z,7.28
2019-03-29T18:15:16.928Z,7.34
2019-03-29T18:17:47.731Z,7.29
2019-03-29T18:20:18.498Z,7.24
2019-03-29T18:22:49.233Z,7.24
2019-03-29T18:25:23.755Z,7.25
2019-03-29T18:27:55.954Z,7.29
2019-03-29T18:30:40.263Z,7.25
2019-03-29T18:33:10.615Z,7.23
2019-03-29T18:35:42.346Z,7.22
2019-03-29T18:38:12.774Z,7.24
2019-03-29T18:40:44.616Z,7.20
2019-03-29T18:43:15.265Z,7.21
2019-03-29T18:45:46.096Z,7.24
2019-03-29T18:48:16.933Z,7.24
2019-03-29T18:50:48.993Z,7.20
2019-03-29T18:53:21.261Z,7.22
2019-03-29T18:55:53.774Z,7.26
2019-03-29T18:58:27.426Z,7.26
2019-03-29T19:01:01.186Z,7.28
2019-03-29T19:03:32.889Z,7.29
2019-03-29T19:06:03.193Z,7.32
2019-03-29T19:08:34.708Z,7.38
2019-03-29T19:11:05.502Z,7.33
2019-03-29T19:13:37.668Z,7.32
2019-03-29T19:16:08.299Z,7.32
2019-03-29T19:18:41.705Z,7.32
2019-03-29T19:21:12.804Z,7.25
2019-03-29T19:23:45.072Z,7.20
2019-03-29T19:26:16.043Z,7.19
2019-03-29T19:28:49.127Z,7.18
2019-03-29T19:31:21.752Z,7.17
2019-03-29T19:33:54.181Z,7.16
2019-03-29T19:36:25.526Z,7.22
2019-03-29T19:38:55.946Z,7.18
2019-03-29T19:41:26.882Z,7.23
2019-03-29T19:43:59.770Z,7.02
2019-03-29T19:46:33.163Z,7.17
2019-03-29T19:49:05.230Z,7.18
2019-03-29T19:51:36.577Z,7.23
2019-03-29T19:54:08.355Z,7.22
2019-03-29T19:56:39.370Z,7.21
2019-03-29T19:59:10.041Z,7.21
2019-03-29T20:01:42.088Z,7.09
2019-03-29T20:04:12.498Z,7.07
2019-03-29T20:06:44.050Z,7.13
2019-03-29T20:09:15.618Z,7.08
2019-03-29T20:11:46.327Z,7.17
2019-03-29T20:14:17.677Z,7.18
2019-03-29T20:16:48.304Z,7.14
2019-03-29T20:19:23.032Z,7.09
2019-03-29T20:21:53.864Z,7.10
2019-03-29T20:24:24.222Z,7.08
2019-03-29T20:26:54.918Z,7.20
2019-03-29T20:29:28.006Z,7.25
2019-03-29T20:31:58.840Z,7.25
2019-03-29T20:34:29.938Z,7.22
2019-03-29T20:37:00.818Z,7.23
2019-03-29T20:39:31.445Z,7.22
2019-03-29T20:42:02.690Z,7.15
2019-03-29T20:44:33.219Z,7.08
2019-03-29T20:47:04.478Z,7.07
2019-03-29T20:49:36.527Z,7.02
2019-03-29T20:52:07.465Z,7.10
2019-03-29T20:54:38.632Z,7.01
2019-03-29T20:57:09.238Z,6.95
2019-03-29T20:59:40.582Z,6.87
2019-03-29T21:02:10.892Z,6.80
2019-03-29T21:04:42.770Z,6.68
2019-03-29T21:07:14.523Z,6.60
2019-03-29T21:09:46.077Z,6.59
2019-03-29T21:12:17.319Z,6.44
2019-03-29T21:14:49.181Z,6.36
2019-03-29T21:17:21.043Z,6.26
2019-03-29T21:19:51.461Z,6.16
2019-03-29T21:22:22.005Z,6.12
2019-03-29T21:24:52.715Z,6.03
2019-03-29T21:27:25.195Z,6.00
2019-03-29T21:29:55.928Z,5.93
2019-03-29T21:32:27.617Z,5.91
2019-03-29T21:34:58.518Z,5.87
2019-03-29T21:37:30.481Z,5.85
2019-03-29T21:40:05.799Z,5.83
2019-03-29T21:42:36.719Z,5.80
2019-03-29T21:45:07.594Z,5.83
2019-03-29T21:47:39.040Z,5.81
2019-03-29T21:50:10.490Z,5.84
2019-03-29T21:52:42.766Z,5.84
2019-03-29T21:55:13.194Z,5.81
2019-03-29T21:57:43.813Z,5.86
2019-03-29T22:00:16.194Z,5.78
2019-03-29T22:02:47.415Z,5.78
2019-03-29T22:05:19.596Z,5.77
2019-03-29T22:07:51.791Z,5.76
2019-03-29T22:10:22.591Z,5.69
2019-03-29T22:12:53.429Z,5.74
2019-03-29T22:15:24.364Z,5.71
2019-03-29T22:17:55.513Z,5.74
2019-03-29T22:20:26.237Z,5.67
2019-03-29T22:22:58.067Z,5.66
2019-03-29T22:25:30.572Z,5.61
2019-03-29T22:28:01.306Z,5.61
2019-03-29T22:30:31.940Z,5.54
2019-03-29T22:33:04.097Z,5.58
2019-03-29T22:35:35.686Z,5.63
2019-03-29T22:38:07.924Z,5.67
2019-03-29T22:40:41.662Z,5.70
2019-03-29T22:43:13.276Z,5.63
2019-03-29T22:45:44.612Z,5.56
2019-03-29T22:48:16.278Z,5.54
2019-03-29T22:50:47.265Z,5.52
2019-03-29T22:53:18.150Z,5.44
2019-03-29T22:55:48.890Z,5.40
2019-03-29T22:58:19.512Z,5.48
2019-03-29T23:00:52.954Z,5.35
2019-03-29T23:03:24.977Z,5.36
2019-03-29T23:05:55.281Z,5.42
2019-03-29T23:08:28.183Z,5.47
2019-03-29T23:10:59.303Z,5.52
2019-03-29T23:13:32.313Z,5.55
2019-03-29T23:16:03.739Z,5.64
2019-03-29T23:18:34.386Z,5.66
2019-03-29T23:21:06.593Z,5.68
2019-03-29T23:23:39.204Z,5.78
2019-03-29T23:26:10.169Z,5.84
2019-03-29T23:28:40.761Z,5.82
2019-03-29T23:31:12.353Z,5.77
2019-03-29T23:33:43.493Z,5.76
2019-03-29T23:36:14.800Z,5.69
2019-03-29T23:38:45.775Z,5.63
2019-03-29T23:41:16.404Z,5.63
2019-03-29T23:43:48.981Z,5.67
2019-03-29T23:46:19.818Z,5.63
2019-03-29T23:48:50.918Z,5.63
2019-03-29T23:51:23.739Z,5.59
2019-03-29T23:53:54.375Z,5.61
2019-03-29T23:56:25.216Z,5.52
2019-03-29T23:58:56.826Z,5.50
